CheckWX is a tool to help pilots better visualize weather data.  It is not intended as a substitute for an official pre-flight weather briefing.

21:03:02 UTC

CYGT METAR
Igloolik Airport
Igloolik, Canada
Current

1 hour ago

CYGT 232000Z 08017G23KT 2SM -SN BR FEW003 BKN004 OVC006 00/00 A2988 RMK SC2SC5SC1 SLP123
Observed
May-23 @ 20:00 UTC
Wind
  • 080° at 17 KTS
  • Gusting to 23 KTS
Visibility
2 SM
Flight Rules
LIFR
Conditions
Light Snow, Mist
Cloud Levels
  • Few at 300' AGL
  • Broken at 400' AGL
  • Overcast at 600' AGL
Temperature
C / 32°F
Dewpoint
C / 32°F
Humidity
100%
Altimeter
29.88" Hg
Pressure
1011.82 hPa
Previous

2 hours ago

CYGT 231900Z 07016G23KT 3SM -SN BR BKN004 OVC006 01/00 A2988 RMK SC6SC2 SLP126
Observed
May-23 @ 19:00 UTC
Wind
  • 070° at 16 KTS
  • Gusting to 23 KTS
Visibility
3 SM
Flight Rules
LIFR
Conditions
Light Snow, Mist
Cloud Levels
  • Broken at 400' AGL
  • Overcast at 600' AGL
Temperature
C / 34°F
Dewpoint
C / 32°F
Humidity
93%
Altimeter
29.88" Hg
Pressure
1011.82 hPa
Previous

3 hours ago

CYGT 231800Z 08017G23KT 2SM -SN BR BKN004 OVC006 00/00 A2990 RMK SC6SC2 SLP130
Observed
May-23 @ 18:00 UTC
Wind
  • 080° at 17 KTS
  • Gusting to 23 KTS
Visibility
2 SM
Flight Rules
LIFR
Conditions
Light Snow, Mist
Cloud Levels
  • Broken at 400' AGL
  • Overcast at 600' AGL
Temperature
C / 32°F
Dewpoint
C / 32°F
Humidity
100%
Altimeter
29.9" Hg
Pressure
1012.52 hPa